sensor_id;sensor_type;location;lat;lon;timestamp;P1;durP1;ratioP1;P2;durP2;ratioP2
27642;SDS011;15053;48.618;10.024;2023-09-19T00:00:20;1.60;;;1.10;;
27642;SDS011;15053;48.618;10.024;2023-09-19T00:02:58;2.63;;;1.38;;
27642;SDS011;15053;48.618;10.024;2023-09-19T00:05:28;2.00;;;1.17;;
27642;SDS011;15053;48.618;10.024;2023-09-19T00:07:56;2.78;;;1.50;;
27642;SDS011;15053;48.618;10.024;2023-09-19T00:10:27;2.92;;;1.50;;
27642;SDS011;15053;48.618;10.024;2023-09-19T00:15:35;2.35;;;1.42;;
27642;SDS011;15053;48.618;10.024;2023-09-19T00:18:04;3.17;;;1.38;;
27642;SDS011;15053;48.618;10.024;2023-09-19T00:20:35;1.38;;;1.27;;
27642;SDS011;15053;48.618;10.024;2023-09-19T00:23:03;3.65;;;1.55;;
27642;SDS011;15053;48.618;10.024;2023-09-19T00:25:30;3.30;;;1.20;;
27642;SDS011;15053;48.618;10.024;2023-09-19T00:27:58;0.90;;;0.80;;
27642;SDS011;15053;48.618;10.024;2023-09-19T00:30:26;1.35;;;0.82;;
27642;SDS011;15053;48.618;10.024;2023-09-19T00:32:53;2.05;;;1.10;;
27642;SDS011;15053;48.618;10.024;2023-09-19T00:35:21;1.10;;;0.98;;
27642;SDS011;15053;48.618;10.024;2023-09-19T00:37:50;1.92;;;0.77;;
27642;SDS011;15053;48.618;10.024;2023-09-19T00:40:17;2.97;;;0.88;;
27642;SDS011;15053;48.618;10.024;2023-09-19T00:42:45;1.38;;;1.00;;
27642;SDS011;15053;48.618;10.024;2023-09-19T00:45:13;3.10;;;1.02;;
27642;SDS011;15053;48.618;10.024;2023-09-19T00:47:44;2.72;;;0.88;;
27642;SDS011;15053;48.618;10.024;2023-09-19T00:50:17;1.40;;;0.80;;
27642;SDS011;15053;48.618;10.024;2023-09-19T00:52:49;3.72;;;0.80;;
27642;SDS011;15053;48.618;10.024;2023-09-19T00:55:19;1.60;;;0.95;;
27642;SDS011;15053;48.618;10.024;2023-09-19T00:57:46;2.08;;;0.70;;
27642;SDS011;15053;48.618;10.024;2023-09-19T01:00:16;2.00;;;0.93;;
27642;SDS011;15053;48.618;10.024;2023-09-19T01:02:47;2.17;;;1.15;;
27642;SDS011;15053;48.618;10.024;2023-09-19T01:05:15;2.30;;;0.95;;
27642;SDS011;15053;48.618;10.024;2023-09-19T01:07:42;1.50;;;0.70;;
27642;SDS011;15053;48.618;10.024;2023-09-19T01:10:09;1.48;;;1.25;;
27642;SDS011;15053;48.618;10.024;2023-09-19T01:18:33;1.83;;;0.90;;
27642;SDS011;15053;48.618;10.024;2023-09-19T01:24:16;1.77;;;1.00;;
27642;SDS011;15053;48.618;10.024;2023-09-19T01:29:47;1.10;;;0.70;;
27642;SDS011;15053;48.618;10.024;2023-09-19T01:32:17;3.42;;;0.75;;
27642;SDS011;15053;48.618;10.024;2023-09-19T01:34:54;0.93;;;0.60;;
27642;SDS011;15053;48.618;10.024;2023-09-19T01:37:24;1.08;;;0.95;;
27642;SDS011;15053;48.618;10.024;2023-09-19T01:39:59;0.93;;;0.70;;
27642;SDS011;15053;48.618;10.024;2023-09-19T01:42:44;0.98;;;0.77;;
27642;SDS011;15053;48.618;10.024;2023-09-19T01:45:12;1.85;;;1.02;;
27642;SDS011;15053;48.618;10.024;2023-09-19T01:47:49;1.58;;;1.08;;
27642;SDS011;15053;48.618;10.024;2023-09-19T01:55:59;0.77;;;0.70;;
27642;SDS011;15053;48.618;10.024;2023-09-19T01:58:34;1.58;;;0.70;;
27642;SDS011;15053;48.618;10.024;2023-09-19T02:01:05;1.27;;;0.90;;
27642;SDS011;15053;48.618;10.024;2023-09-19T02:03:37;2.53;;;0.90;;
27642;SDS011;15053;48.618;10.024;2023-09-19T02:06:06;1.70;;;1.00;;
27642;SDS011;15053;48.618;10.024;2023-09-19T02:08:37;1.13;;;0.47;;
27642;SDS011;15053;48.618;10.024;2023-09-19T02:11:04;0.98;;;0.70;;
27642;SDS011;15053;48.618;10.024;2023-09-19T02:13:32;0.93;;;0.80;;
27642;SDS011;15053;48.618;10.024;2023-09-19T02:15:59;1.75;;;0.98;;
27642;SDS011;15053;48.618;10.024;2023-09-19T02:18:26;1.30;;;0.77;;
27642;SDS011;15053;48.618;10.024;2023-09-19T02:20:54;1.70;;;1.10;;
27642;SDS011;15053;48.618;10.024;2023-09-19T02:23:22;0.88;;;0.63;;
27642;SDS011;15053;48.618;10.024;2023-09-19T02:25:52;1.60;;;1.02;;
27642;SDS011;15053;48.618;10.024;2023-09-19T02:28:20;1.40;;;0.80;;
27642;SDS011;15053;48.618;10.024;2023-09-19T02:30:50;1.70;;;0.80;;
27642;SDS011;15053;48.618;10.024;2023-09-19T02:33:16;1.27;;;0.88;;
27642;SDS011;15053;48.618;10.024;2023-09-19T02:35:46;0.80;;;0.77;;
27642;SDS011;15053;48.618;10.024;2023-09-19T02:38:13;2.15;;;0.95;;
27642;SDS011;15053;48.618;10.024;2023-09-19T02:40:40;2.25;;;1.05;;
27642;SDS011;15053;48.618;10.024;2023-09-19T02:43:09;2.03;;;0.88;;
27642;SDS011;15053;48.618;10.024;2023-09-19T02:45:36;2.08;;;1.02;;
27642;SDS011;15053;48.618;10.024;2023-09-19T02:48:02;2.55;;;0.98;;
27642;SDS011;15053;48.618;10.024;2023-09-19T02:50:31;4.22;;;1.10;;
27642;SDS011;15053;48.618;10.024;2023-09-19T02:52:57;3.00;;;1.02;;
27642;SDS011;15053;48.618;10.024;2023-09-19T02:55:24;2.03;;;1.30;;
27642;SDS011;15053;48.618;10.024;2023-09-19T02:57:53;5.55;;;1.45;;
27642;SDS011;15053;48.618;10.024;2023-09-19T03:00:24;2.40;;;0.70;;
27642;SDS011;15053;48.618;10.024;2023-09-19T03:02:52;3.17;;;1.08;;
27642;SDS011;15053;48.618;10.024;2023-09-19T03:05:20;1.95;;;1.33;;
27642;SDS011;15053;48.618;10.024;2023-09-19T03:07:48;1.67;;;0.85;;
27642;SDS011;15053;48.618;10.024;2023-09-19T03:10:18;3.53;;;1.10;;
27642;SDS011;15053;48.618;10.024;2023-09-19T03:12:48;1.83;;;0.80;;
27642;SDS011;15053;48.618;10.024;2023-09-19T03:15:17;3.50;;;0.88;;
27642;SDS011;15053;48.618;10.024;2023-09-19T03:17:45;1.42;;;1.10;;
27642;SDS011;15053;48.618;10.024;2023-09-19T03:20:17;1.45;;;1.00;;
27642;SDS011;15053;48.618;10.024;2023-09-19T03:22:46;2.25;;;0.77;;
27642;SDS011;15053;48.618;10.024;2023-09-19T03:25:15;3.38;;;1.20;;
27642;SDS011;15053;48.618;10.024;2023-09-19T03:27:47;1.90;;;1.23;;
27642;SDS011;15053;48.618;10.024;2023-09-19T03:30:14;23.38;;;1.80;;
27642;SDS011;15053;48.618;10.024;2023-09-19T03:32:47;1.15;;;0.98;;
27642;SDS011;15053;48.618;10.024;2023-09-19T03:35:17;1.70;;;0.85;;
27642;SDS011;15053;48.618;10.024;2023-09-19T03:37:44;3.90;;;1.05;;
27642;SDS011;15053;48.618;10.024;2023-09-19T03:40:13;2.83;;;1.08;;
27642;SDS011;15053;48.618;10.024;2023-09-19T03:42:41;2.33;;;1.10;;
27642;SDS011;15053;48.618;10.024;2023-09-19T03:45:12;2.60;;;1.48;;
27642;SDS011;15053;48.618;10.024;2023-09-19T03:47:44;1.48;;;1.20;;
27642;SDS011;15053;48.618;10.024;2023-09-19T03:50:15;2.55;;;1.38;;
27642;SDS011;15053;48.618;10.024;2023-09-19T03:52:44;2.92;;;1.27;;
27642;SDS011;15053;48.618;10.024;2023-09-19T03:55:11;2.42;;;1.00;;
27642;SDS011;15053;48.618;10.024;2023-09-19T03:57:38;2.88;;;0.93;;
27642;SDS011;15053;48.618;10.024;2023-09-19T04:00:05;1.55;;;1.40;;
27642;SDS011;15053;48.618;10.024;2023-09-19T04:02:40;1.13;;;1.00;;
27642;SDS011;15053;48.618;10.024;2023-09-19T04:05:07;2.72;;;1.30;;
27642;SDS011;15053;48.618;10.024;2023-09-19T04:07:35;2.10;;;1.15;;
27642;SDS011;15053;48.618;10.024;2023-09-19T04:10:01;2.33;;;1.33;;
27642;SDS011;15053;48.618;10.024;2023-09-19T04:12:29;3.10;;;1.15;;
27642;SDS011;15053;48.618;10.024;2023-09-19T04:14:56;2.67;;;1.40;;
27642;SDS011;15053;48.618;10.024;2023-09-19T04:17:22;2.17;;;1.30;;
27642;SDS011;15053;48.618;10.024;2023-09-19T04:19:50;2.17;;;1.30;;
27642;SDS011;15053;48.618;10.024;2023-09-19T04:22:17;2.10;;;1.27;;
27642;SDS011;15053;48.618;10.024;2023-09-19T04:24:43;1.73;;;1.13;;
27642;SDS011;15053;48.618;10.024;2023-09-19T04:27:10;7.25;;;1.42;;
27642;SDS011;15053;48.618;10.024;2023-09-19T04:29:38;1.73;;;1.27;;
27642;SDS011;15053;48.618;10.024;2023-09-19T04:32:05;4.03;;;1.45;;
27642;SDS011;15053;48.618;10.024;2023-09-19T04:34:32;3.03;;;1.42;;
27642;SDS011;15053;48.618;10.024;2023-09-19T04:37:00;4.35;;;1.30;;
27642;SDS011;15053;48.618;10.024;2023-09-19T04:39:28;4.18;;;1.30;;
27642;SDS011;15053;48.618;10.024;2023-09-19T04:41:55;2.42;;;1.23;;
27642;SDS011;15053;48.618;10.024;2023-09-19T04:44:21;1.67;;;1.40;;
27642;SDS011;15053;48.618;10.024;2023-09-19T04:46:48;2.70;;;1.70;;
27642;SDS011;15053;48.618;10.024;2023-09-19T04:49:15;1.30;;;1.20;;
27642;SDS011;15053;48.618;10.024;2023-09-19T04:51:41;3.88;;;1.60;;
27642;SDS011;15053;48.618;10.024;2023-09-19T04:54:08;2.28;;;1.35;;
27642;SDS011;15053;48.618;10.024;2023-09-19T04:56:35;2.40;;;1.50;;
27642;SDS011;15053;48.618;10.024;2023-09-19T04:59:02;2.33;;;1.65;;
27642;SDS011;15053;48.618;10.024;2023-09-19T05:01:29;1.85;;;1.30;;
27642;SDS011;15053;48.618;10.024;2023-09-19T05:03:55;3.45;;;1.38;;
27642;SDS011;15053;48.618;10.024;2023-09-19T05:06:22;2.78;;;1.70;;
27642;SDS011;15053;48.618;10.024;2023-09-19T05:08:49;2.72;;;1.75;;
27642;SDS011;15053;48.618;10.024;2023-09-19T05:11:18;4.03;;;1.88;;
27642;SDS011;15053;48.618;10.024;2023-09-19T05:13:47;3.90;;;1.40;;
27642;SDS011;15053;48.618;10.024;2023-09-19T05:16:14;3.55;;;1.42;;
27642;SDS011;15053;48.618;10.024;2023-09-19T05:18:40;1.80;;;1.67;;
27642;SDS011;15053;48.618;10.024;2023-09-19T05:21:07;3.83;;;1.40;;
27642;SDS011;15053;48.618;10.024;2023-09-19T05:23:34;3.78;;;1.48;;
27642;SDS011;15053;48.618;10.024;2023-09-19T05:26:01;2.30;;;1.50;;
27642;SDS011;15053;48.618;10.024;2023-09-19T05:28:28;3.90;;;1.83;;
27642;SDS011;15053;48.618;10.024;2023-09-19T05:30:55;4.20;;;1.50;;
27642;SDS011;15053;48.618;10.024;2023-09-19T05:33:22;2.45;;;1.73;;
27642;SDS011;15053;48.618;10.024;2023-09-19T05:35:49;2.72;;;1.63;;
27642;SDS011;15053;48.618;10.024;2023-09-19T05:38:15;2.85;;;1.75;;
27642;SDS011;15053;48.618;10.024;2023-09-19T05:40:45;3.42;;;1.35;;
27642;SDS011;15053;48.618;10.024;2023-09-19T05:43:12;1.50;;;1.40;;
27642;SDS011;15053;48.618;10.024;2023-09-19T05:45:40;2.10;;;1.60;;
27642;SDS011;15053;48.618;10.024;2023-09-19T05:48:11;3.28;;;1.63;;
27642;SDS011;15053;48.618;10.024;2023-09-19T05:50:40;2.08;;;1.50;;
27642;SDS011;15053;48.618;10.024;2023-09-19T05:53:06;3.75;;;1.83;;
27642;SDS011;15053;48.618;10.024;2023-09-19T05:55:33;2.88;;;1.70;;
27642;SDS011;15053;48.618;10.024;2023-09-19T05:58:00;2.17;;;1.50;;
27642;SDS011;15053;48.618;10.024;2023-09-19T06:00:26;1.88;;;1.50;;
27642;SDS011;15053;48.618;10.024;2023-09-19T06:02:58;3.00;;;1.40;;
27642;SDS011;15053;48.618;10.024;2023-09-19T06:05:26;1.83;;;1.50;;
27642;SDS011;15053;48.618;10.024;2023-09-19T06:07:53;3.13;;;1.48;;
27642;SDS011;15053;48.618;10.024;2023-09-19T06:10:20;2.25;;;1.42;;
27642;SDS011;15053;48.618;10.024;2023-09-19T06:12:47;1.90;;;1.52;;
27642;SDS011;15053;48.618;10.024;2023-09-19T06:15:15;2.28;;;1.42;;
27642;SDS011;15053;48.618;10.024;2023-09-19T06:17:48;2.63;;;1.70;;
27642;SDS011;15053;48.618;10.024;2023-09-19T06:20:16;2.85;;;1.35;;
27642;SDS011;15053;48.618;10.024;2023-09-19T06:22:43;2.13;;;1.25;;
27642;SDS011;15053;48.618;10.024;2023-09-19T06:25:11;1.98;;;1.50;;
27642;SDS011;15053;48.618;10.024;2023-09-19T06:27:46;3.90;;;1.73;;
27642;SDS011;15053;48.618;10.024;2023-09-19T06:30:24;2.75;;;1.73;;
27642;SDS011;15053;48.618;10.024;2023-09-19T06:32:55;2.25;;;1.40;;
27642;SDS011;15053;48.618;10.024;2023-09-19T06:35:23;2.47;;;1.70;;
27642;SDS011;15053;48.618;10.024;2023-09-19T06:37:50;2.75;;;1.30;;
27642;SDS011;15053;48.618;10.024;2023-09-19T06:40:17;4.43;;;2.33;;
27642;SDS011;15053;48.618;10.024;2023-09-19T06:42:46;1.88;;;1.60;;
27642;SDS011;15053;48.618;10.024;2023-09-19T06:45:16;2.45;;;1.98;;
27642;SDS011;15053;48.618;10.024;2023-09-19T06:47:46;4.47;;;1.67;;
27642;SDS011;15053;48.618;10.024;2023-09-19T06:50:17;1.70;;;1.40;;
27642;SDS011;15053;48.618;10.024;2023-09-19T06:52:46;4.20;;;1.65;;
27642;SDS011;15053;48.618;10.024;2023-09-19T06:55:16;2.85;;;2.10;;
27642;SDS011;15053;48.618;10.024;2023-09-19T06:57:43;2.58;;;1.65;;
27642;SDS011;15053;48.618;10.024;2023-09-19T07:00:10;4.45;;;2.13;;
27642;SDS011;15053;48.618;10.024;2023-09-19T07:03:00;2.63;;;1.67;;
27642;SDS011;15053;48.618;10.024;2023-09-19T07:05:34;3.47;;;2.10;;
27642;SDS011;15053;48.618;10.024;2023-09-19T07:08:07;2.03;;;1.80;;
27642;SDS011;15053;48.618;10.024;2023-09-19T07:10:34;3.58;;;2.03;;
27642;SDS011;15053;48.618;10.024;2023-09-19T07:13:02;3.17;;;1.80;;
27642;SDS011;15053;48.618;10.024;2023-09-19T07:15:31;3.67;;;2.05;;
27642;SDS011;15053;48.618;10.024;2023-09-19T07:18:05;3.65;;;2.13;;
27642;SDS011;15053;48.618;10.024;2023-09-19T07:20:33;4.40;;;1.83;;
27642;SDS011;15053;48.618;10.024;2023-09-19T07:23:01;3.40;;;1.50;;
27642;SDS011;15053;48.618;10.024;2023-09-19T07:25:28;3.08;;;1.60;;
27642;SDS011;15053;48.618;10.024;2023-09-19T07:27:55;2.95;;;1.67;;
27642;SDS011;15053;48.618;10.024;2023-09-19T07:30:23;4.20;;;1.98;;
27642;SDS011;15053;48.618;10.024;2023-09-19T07:32:49;3.20;;;1.65;;
27642;SDS011;15053;48.618;10.024;2023-09-19T07:35:16;1.50;;;1.10;;
27642;SDS011;15053;48.618;10.024;2023-09-19T07:37:43;4.00;;;1.30;;
27642;SDS011;15053;48.618;10.024;2023-09-19T07:40:09;2.25;;;1.63;;
27642;SDS011;15053;48.618;10.024;2023-09-19T07:42:37;2.60;;;1.73;;
27642;SDS011;15053;48.618;10.024;2023-09-19T07:45:07;1.73;;;1.40;;
27642;SDS011;15053;48.618;10.024;2023-09-19T07:47:34;2.15;;;1.13;;
27642;SDS011;15053;48.618;10.024;2023-09-19T07:50:02;1.38;;;1.08;;
27642;SDS011;15053;48.618;10.024;2023-09-19T07:52:29;0.95;;;0.85;;
27642;SDS011;15053;48.618;10.024;2023-09-19T07:54:56;1.17;;;0.95;;
27642;SDS011;15053;48.618;10.024;2023-09-19T07:57:24;2.92;;;0.90;;
27642;SDS011;15053;48.618;10.024;2023-09-19T07:59:51;1.90;;;0.88;;
27642;SDS011;15053;48.618;10.024;2023-09-19T08:02:17;1.23;;;1.05;;
27642;SDS011;15053;48.618;10.024;2023-09-19T08:04:45;2.42;;;0.80;;
27642;SDS011;15053;48.618;10.024;2023-09-19T08:07:13;1.75;;;1.10;;
27642;SDS011;15053;48.618;10.024;2023-09-19T08:09:39;1.38;;;1.00;;
27642;SDS011;15053;48.618;10.024;2023-09-19T08:12:06;1.25;;;1.00;;
27642;SDS011;15053;48.618;10.024;2023-09-19T08:14:36;1.58;;;1.13;;
27642;SDS011;15053;48.618;10.024;2023-09-19T08:17:04;0.70;;;0.70;;
27642;SDS011;15053;48.618;10.024;2023-09-19T08:19:32;1.08;;;0.98;;
27642;SDS011;15053;48.618;10.024;2023-09-19T08:21:59;1.33;;;1.20;;
27642;SDS011;15053;48.618;10.024;2023-09-19T08:24:26;1.10;;;1.00;;
27642;SDS011;15053;48.618;10.024;2023-09-19T08:26:55;1.30;;;1.20;;
27642;SDS011;15053;48.618;10.024;2023-09-19T08:29:22;1.23;;;1.13;;
27642;SDS011;15053;48.618;10.024;2023-09-19T08:31:54;2.22;;;1.30;;
27642;SDS011;15053;48.618;10.024;2023-09-19T08:34:23;2.17;;;1.40;;
27642;SDS011;15053;48.618;10.024;2023-09-19T08:36:50;3.15;;;1.40;;
27642;SDS011;15053;48.618;10.024;2023-09-19T08:39:18;1.90;;;1.50;;
27642;SDS011;15053;48.618;10.024;2023-09-19T08:41:45;1.75;;;1.40;;
27642;SDS011;15053;48.618;10.024;2023-09-19T08:44:12;2.03;;;1.77;;
27642;SDS011;15053;48.618;10.024;2023-09-19T08:46:40;1.60;;;1.50;;
27642;SDS011;15053;48.618;10.024;2023-09-19T08:49:10;2.30;;;2.00;;
27642;SDS011;15053;48.618;10.024;2023-09-19T08:51:48;4.88;;;1.88;;
27642;SDS011;15053;48.618;10.024;2023-09-19T08:54:24;3.00;;;1.90;;
27642;SDS011;15053;48.618;10.024;2023-09-19T08:56:55;2.17;;;1.60;;
27642;SDS011;15053;48.618;10.024;2023-09-19T08:59:25;2.90;;;1.70;;
27642;SDS011;15053;48.618;10.024;2023-09-19T09:01:53;2.88;;;1.40;;
27642;SDS011;15053;48.618;10.024;2023-09-19T09:04:20;2.25;;;1.63;;
27642;SDS011;15053;48.618;10.024;2023-09-19T09:06:48;2.25;;;1.63;;
27642;SDS011;15053;48.618;10.024;2023-09-19T09:09:19;3.20;;;1.70;;
27642;SDS011;15053;48.618;10.024;2023-09-19T09:11:48;2.65;;;1.52;;
27642;SDS011;15053;48.618;10.024;2023-09-19T09:14:17;2.83;;;1.35;;
27642;SDS011;15053;48.618;10.024;2023-09-19T09:16:45;2.58;;;1.60;;
27642;SDS011;15053;48.618;10.024;2023-09-19T09:19:14;3.13;;;1.92;;
27642;SDS011;15053;48.618;10.024;2023-09-19T09:21:43;2.28;;;1.73;;
27642;SDS011;15053;48.618;10.024;2023-09-19T09:26:58;2.35;;;1.65;;
27642;SDS011;15053;48.618;10.024;2023-09-19T09:29:39;3.72;;;1.70;;
27642;SDS011;15053;48.618;10.024;2023-09-19T09:32:17;5.22;;;1.80;;
27642;SDS011;15053;48.618;10.024;2023-09-19T09:37:26;2.08;;;1.58;;
27642;SDS011;15053;48.618;10.024;2023-09-19T09:39:55;1.42;;;1.33;;
27642;SDS011;15053;48.618;10.024;2023-09-19T09:42:31;1.92;;;1.38;;
27642;SDS011;15053;48.618;10.024;2023-09-19T09:45:14;1.73;;;1.30;;
27642;SDS011;15053;48.618;10.024;2023-09-19T09:48:01;1.58;;;1.25;;
27642;SDS011;15053;48.618;10.024;2023-09-19T09:50:46;4.47;;;1.73;;
27642;SDS011;15053;48.618;10.024;2023-09-19T09:53:20;3.13;;;1.60;;
27642;SDS011;15053;48.618;10.024;2023-09-19T09:55:57;4.07;;;1.65;;
27642;SDS011;15053;48.618;10.024;2023-09-19T09:58:35;2.38;;;1.58;;
27642;SDS011;15053;48.618;10.024;2023-09-19T10:01:04;2.97;;;1.30;;
27642;SDS011;15053;48.618;10.024;2023-09-19T10:03:41;1.80;;;1.67;;
27642;SDS011;15053;48.618;10.024;2023-09-19T10:06:16;3.00;;;1.75;;
27642;SDS011;15053;48.618;10.024;2023-09-19T10:11:48;2.03;;;1.50;;
27642;SDS011;15053;48.618;10.024;2023-09-19T10:14:25;4.20;;;1.52;;
27642;SDS011;15053;48.618;10.024;2023-09-19T10:16:59;2.72;;;1.40;;
27642;SDS011;15053;48.618;10.024;2023-09-19T10:19:30;1.70;;;1.50;;
27642;SDS011;15053;48.618;10.024;2023-09-19T10:22:04;2.10;;;1.40;;
27642;SDS011;15053;48.618;10.024;2023-09-19T10:24:33;1.95;;;1.38;;
27642;SDS011;15053;48.618;10.024;2023-09-19T10:27:14;2.15;;;1.55;;
27642;SDS011;15053;48.618;10.024;2023-09-19T10:29:42;2.30;;;1.35;;
27642;SDS011;15053;48.618;10.024;2023-09-19T10:32:11;2.25;;;1.13;;
27642;SDS011;15053;48.618;10.024;2023-09-19T10:34:46;1.75;;;1.30;;
27642;SDS011;15053;48.618;10.024;2023-09-19T10:37:13;1.65;;;1.15;;
27642;SDS011;15053;48.618;10.024;2023-09-19T10:39:46;2.05;;;1.38;;
27642;SDS011;15053;48.618;10.024;2023-09-19T10:42:16;2.00;;;1.20;;
27642;SDS011;15053;48.618;10.024;2023-09-19T10:44:47;2.40;;;1.30;;
27642;SDS011;15053;48.618;10.024;2023-09-19T10:47:20;3.35;;;1.45;;
27642;SDS011;15053;48.618;10.024;2023-09-19T10:49:50;2.80;;;0.95;;
27642;SDS011;15053;48.618;10.024;2023-09-19T10:52:19;2.85;;;1.58;;
27642;SDS011;15053;48.618;10.024;2023-09-19T10:54:51;3.55;;;1.30;;
27642;SDS011;15053;48.618;10.024;2023-09-19T10:57:22;2.15;;;1.48;;
27642;SDS011;15053;48.618;10.024;2023-09-19T11:00:06;2.15;;;1.42;;
27642;SDS011;15053;48.618;10.024;2023-09-19T11:05:43;2.90;;;1.50;;
27642;SDS011;15053;48.618;10.024;2023-09-19T11:08:55;2.65;;;1.33;;
27642;SDS011;15053;48.618;10.024;2023-09-19T11:11:50;4.22;;;1.55;;
27642;SDS011;15053;48.618;10.024;2023-09-19T11:17:24;2.60;;;1.35;;
27642;SDS011;15053;48.618;10.024;2023-09-19T11:30:48;2.25;;;1.55;;
27642;SDS011;15053;48.618;10.024;2023-09-19T11:36:02;3.25;;;1.45;;
27642;SDS011;15053;48.618;10.024;2023-09-19T11:46:30;2.67;;;1.50;;
27642;SDS011;15053;48.618;10.024;2023-09-19T11:49:05;2.90;;;1.45;;
27642;SDS011;15053;48.618;10.024;2023-09-19T11:51:40;3.58;;;1.55;;
27642;SDS011;15053;48.618;10.024;2023-09-19T11:54:15;1.30;;;1.17;;
27642;SDS011;15053;48.618;10.024;2023-09-19T11:56:45;4.40;;;1.40;;
27642;SDS011;15053;48.618;10.024;2023-09-19T11:59:19;3.45;;;1.50;;
27642;SDS011;15053;48.618;10.024;2023-09-19T12:01:51;4.20;;;1.27;;
27642;SDS011;15053;48.618;10.024;2023-09-19T12:04:38;2.28;;;1.38;;
27642;SDS011;15053;48.618;10.024;2023-09-19T12:07:08;2.47;;;1.40;;
27642;SDS011;15053;48.618;10.024;2023-09-19T12:09:44;2.25;;;1.20;;
27642;SDS011;15053;48.618;10.024;2023-09-19T12:12:22;2.17;;;1.30;;
27642;SDS011;15053;48.618;10.024;2023-09-19T12:14:50;2.38;;;1.48;;
27642;SDS011;15053;48.618;10.024;2023-09-19T12:17:17;5.07;;;2.65;;
27642;SDS011;15053;48.618;10.024;2023-09-19T12:19:55;2.92;;;2.33;;
27642;SDS011;15053;48.618;10.024;2023-09-19T12:22:22;2.58;;;1.45;;
27642;SDS011;15053;48.618;10.024;2023-09-19T12:24:49;7.90;;;5.15;;
27642;SDS011;15053;48.618;10.024;2023-09-19T12:27:17;3.80;;;2.00;;
27642;SDS011;15053;48.618;10.024;2023-09-19T12:32:36;5.05;;;3.50;;
27642;SDS011;15053;48.618;10.024;2023-09-19T12:35:07;5.13;;;3.25;;
27642;SDS011;15053;48.618;10.024;2023-09-19T12:37:37;11.18;;;6.93;;
27642;SDS011;15053;48.618;10.024;2023-09-19T12:40:12;6.95;;;5.03;;
27642;SDS011;15053;48.618;10.024;2023-09-19T12:42:48;3.20;;;2.10;;
27642;SDS011;15053;48.618;10.024;2023-09-19T12:45:15;2.38;;;1.30;;
27642;SDS011;15053;48.618;10.024;2023-09-19T12:51:02;3.78;;;1.58;;
27642;SDS011;15053;48.618;10.024;2023-09-19T12:53:32;1.58;;;1.35;;
27642;SDS011;15053;48.618;10.024;2023-09-19T12:56:11;1.95;;;1.42;;
27642;SDS011;15053;48.618;10.024;2023-09-19T12:58:56;1.43;;;1.10;;
27642;SDS011;15053;48.618;10.024;2023-09-19T13:01:29;1.52;;;1.10;;
27642;SDS011;15053;48.618;10.024;2023-09-19T13:04:17;2.22;;;1.30;;
27642;SDS011;15053;48.618;10.024;2023-09-19T13:06:55;1.67;;;1.23;;
27642;SDS011;15053;48.618;10.024;2023-09-19T13:09:27;1.63;;;1.52;;
27642;SDS011;15053;48.618;10.024;2023-09-19T13:12:05;3.08;;;1.40;;
27642;SDS011;15053;48.618;10.024;2023-09-19T13:15:07;1.77;;;1.05;;
27642;SDS011;15053;48.618;10.024;2023-09-19T13:17:46;1.20;;;1.10;;
27642;SDS011;15053;48.618;10.024;2023-09-19T13:20:23;1.80;;;1.10;;
27642;SDS011;15053;48.618;10.024;2023-09-19T13:22:54;1.80;;;1.00;;
27642;SDS011;15053;48.618;10.024;2023-09-19T13:25:25;3.67;;;1.48;;
27642;SDS011;15053;48.618;10.024;2023-09-19T13:27:55;1.33;;;1.05;;
27642;SDS011;15053;48.618;10.024;2023-09-19T13:30:23;3.38;;;1.10;;
27642;SDS011;15053;48.618;10.024;2023-09-19T13:32:52;1.83;;;1.10;;
27642;SDS011;15053;48.618;10.024;2023-09-19T13:35:20;1.30;;;1.00;;
27642;SDS011;15053;48.618;10.024;2023-09-19T13:37:47;1.13;;;0.98;;
27642;SDS011;15053;48.618;10.024;2023-09-19T13:40:15;2.35;;;2.05;;
27642;SDS011;15053;48.618;10.024;2023-09-19T13:42:42;1.20;;;1.05;;
27642;SDS011;15053;48.618;10.024;2023-09-19T13:45:09;2.05;;;1.63;;
27642;SDS011;15053;48.618;10.024;2023-09-19T13:47:39;1.95;;;1.27;;
27642;SDS011;15053;48.618;10.024;2023-09-19T13:50:06;0.90;;;0.90;;
27642;SDS011;15053;48.618;10.024;2023-09-19T13:52:34;2.92;;;1.10;;
27642;SDS011;15053;48.618;10.024;2023-09-19T13:55:00;1.92;;;1.17;;
27642;SDS011;15053;48.618;10.024;2023-09-19T13:57:27;1.73;;;1.02;;
27642;SDS011;15053;48.618;10.024;2023-09-19T13:59:53;1.40;;;1.30;;
27642;SDS011;15053;48.618;10.024;2023-09-19T14:02:21;6.68;;;1.63;;
27642;SDS011;15053;48.618;10.024;2023-09-19T14:04:51;3.25;;;1.02;;
27642;SDS011;15053;48.618;10.024;2023-09-19T14:07:18;1.73;;;1.10;;
27642;SDS011;15053;48.618;10.024;2023-09-19T14:09:46;4.68;;;1.08;;
27642;SDS011;15053;48.618;10.024;2023-09-19T14:12:13;1.08;;;1.00;;
27642;SDS011;15053;48.618;10.024;2023-09-19T14:14:40;1.98;;;1.15;;
27642;SDS011;15053;48.618;10.024;2023-09-19T14:17:07;1.70;;;1.08;;
27642;SDS011;15053;48.618;10.024;2023-09-19T14:19:33;4.97;;;1.45;;
27642;SDS011;15053;48.618;10.024;2023-09-19T14:22:01;2.15;;;1.10;;
27642;SDS011;15053;48.618;10.024;2023-09-19T14:24:33;1.35;;;1.10;;
27642;SDS011;15053;48.618;10.024;2023-09-19T14:27:01;1.42;;;1.20;;
27642;SDS011;15053;48.618;10.024;2023-09-19T14:29:30;1.23;;;1.08;;
27642;SDS011;15053;48.618;10.024;2023-09-19T14:31:57;2.25;;;1.02;;
27642;SDS011;15053;48.618;10.024;2023-09-19T14:34:24;2.90;;;1.35;;
27642;SDS011;15053;48.618;10.024;2023-09-19T14:36:51;1.45;;;1.33;;
27642;SDS011;15053;48.618;10.024;2023-09-19T14:39:17;2.13;;;1.20;;
27642;SDS011;15053;48.618;10.024;2023-09-19T14:41:45;1.20;;;1.10;;
27642;SDS011;15053;48.618;10.024;2023-09-19T14:44:12;2.33;;;1.35;;
27642;SDS011;15053;48.618;10.024;2023-09-19T14:46:39;2.60;;;1.20;;
27642;SDS011;15053;48.618;10.024;2023-09-19T14:49:06;1.52;;;1.10;;
27642;SDS011;15053;48.618;10.024;2023-09-19T14:51:33;2.47;;;1.20;;
27642;SDS011;15053;48.618;10.024;2023-09-19T14:54:01;2.15;;;1.30;;
27642;SDS011;15053;48.618;10.024;2023-09-19T14:56:29;2.22;;;1.33;;
27642;SDS011;15053;48.618;10.024;2023-09-19T14:58:57;2.53;;;1.58;;
27642;SDS011;15053;48.618;10.024;2023-09-19T15:01:23;1.52;;;1.10;;
27642;SDS011;15053;48.618;10.024;2023-09-19T15:03:50;2.20;;;1.00;;
27642;SDS011;15053;48.618;10.024;2023-09-19T15:06:17;3.95;;;1.15;;
27642;SDS011;15053;48.618;10.024;2023-09-19T15:08:45;2.85;;;1.50;;
27642;SDS011;15053;48.618;10.024;2023-09-19T15:11:14;1.10;;;1.00;;
27642;SDS011;15053;48.618;10.024;2023-09-19T15:13:47;1.40;;;1.02;;
27642;SDS011;15053;48.618;10.024;2023-09-19T15:16:14;1.73;;;1.10;;
27642;SDS011;15053;48.618;10.024;2023-09-19T15:18:41;2.03;;;1.30;;
27642;SDS011;15053;48.618;10.024;2023-09-19T15:21:11;1.67;;;1.35;;
27642;SDS011;15053;48.618;10.024;2023-09-19T15:23:39;1.83;;;1.20;;
27642;SDS011;15053;48.618;10.024;2023-09-19T15:26:07;1.33;;;1.23;;
27642;SDS011;15053;48.618;10.024;2023-09-19T15:28:35;2.30;;;1.33;;
27642;SDS011;15053;48.618;10.024;2023-09-19T15:31:02;2.22;;;1.20;;
27642;SDS011;15053;48.618;10.024;2023-09-19T15:36:02;3.65;;;1.40;;
27642;SDS011;15053;48.618;10.024;2023-09-19T15:38:30;2.65;;;1.58;;
27642;SDS011;15053;48.618;10.024;2023-09-19T15:41:00;2.03;;;1.30;;
27642;SDS011;15053;48.618;10.024;2023-09-19T15:43:27;2.60;;;1.42;;
27642;SDS011;15053;48.618;10.024;2023-09-19T15:45:54;3.75;;;1.38;;
27642;SDS011;15053;48.618;10.024;2023-09-19T15:48:20;1.80;;;1.30;;
27642;SDS011;15053;48.618;10.024;2023-09-19T15:50:47;2.65;;;1.52;;
27642;SDS011;15053;48.618;10.024;2023-09-19T15:53:14;1.60;;;1.30;;